createdAt,value
2023-01-15T00:00:15.572Z,99519.50
2023-01-15T00:02:43.537Z,99532.75
2023-01-15T00:05:11.524Z,99445.53
2023-01-15T00:07:40.876Z,99521.38
2023-01-15T00:10:10.200Z,99532.50
2023-01-15T00:12:38.134Z,99530.63
2023-01-15T00:15:09.407Z,99536.06
2023-01-15T00:17:37.338Z,99540.91
2023-01-15T00:20:05.944Z,99547.16
2023-01-15T00:22:33.891Z,99551.78
2023-01-15T00:25:20.659Z,99564.53
2023-01-15T00:27:48.603Z,99570.19
2023-01-15T00:30:16.761Z,99559.34
2023-01-15T00:32:44.836Z,99548.47
2023-01-15T00:35:14.484Z,99564.75
2023-01-15T00:37:42.403Z,99563.09
2023-01-15T00:40:12.945Z,99576.69
2023-01-15T00:42:40.815Z,99573.72
2023-01-15T00:45:11.030Z,99568.53
2023-01-15T00:47:39.110Z,99558.78
2023-01-15T00:50:08.499Z,99558.50
2023-01-15T00:52:36.389Z,99554.97
2023-01-15T00:55:04.421Z,99559.59
2023-01-15T00:57:33.699Z,99558.19
2023-01-15T01:00:01.998Z,99557.34
2023-01-15T01:02:29.965Z,99560.06
2023-01-15T01:05:00.827Z,99541.88
2023-01-15T01:07:28.740Z,99535.63
2023-01-15T01:09:56.714Z,99472.13
2023-01-15T01:12:24.713Z,99510.63
2023-01-15T01:14:54.059Z,99512.25
2023-01-15T01:17:21.981Z,99400.56
2023-01-15T01:19:50.626Z,99504.22
2023-01-15T01:22:18.622Z,99522.28
2023-01-15T01:24:46.541Z,99514.13
2023-01-15T01:27:14.492Z,99512.25
2023-01-15T01:29:42.383Z,99506.00
2023-01-15T01:32:11.711Z,99518.78
2023-01-15T01:34:39.706Z,99536.53
2023-01-15T01:37:07.728Z,99536.69
2023-01-15T01:39:35.853Z,99528.53
2023-01-15T01:42:03.714Z,99543.22
2023-01-15T01:45:00.000Z,99549.44
2023-01-15T01:47:29.274Z,99551.38
2023-01-15T01:49:59.897Z,99550.53
2023-01-15T01:52:28.850Z,99514.66
2023-01-15T01:54:56.738Z,99544.28
2023-01-15T01:57:24.682Z,99551.38
2023-01-15T01:59:52.549Z,99549.44
2023-01-15T02:02:21.648Z,99552.44
2023-01-15T02:04:51.004Z,99563.28
2023-01-15T02:07:18.884Z,99569.56
2023-01-15T02:09:47.068Z,99534.09
2023-01-15T02:12:25.563Z,99542.94
2023-01-15T02:14:58.743Z,99512.91
2023-01-15T02:17:29.143Z,99534.50
2023-01-15T02:20:10.390Z,99553.25
2023-01-15T02:22:54.563Z,99543.47
2023-01-15T02:25:25.656Z,99507.84
2023-01-15T02:27:56.468Z,99532.34
2023-01-15T02:30:26.589Z,99536.97
2023-01-15T02:32:55.235Z,99526.09
2023-01-15T02:35:24.443Z,99519.03
2023-01-15T02:37:53.238Z,99502.13
2023-01-15T02:40:22.344Z,99494.41
2023-01-15T02:42:50.550Z,99508.97
2023-01-15T02:45:24.156Z,99510.88
2023-01-15T02:47:52.178Z,99520.09
2023-01-15T02:50:21.240Z,99516.16
2023-01-15T02:52:50.670Z,99523.63
2023-01-15T02:55:20.272Z,99509.06
2023-01-15T02:57:48.506Z,99530.72
2023-01-15T03:00:17.458Z,99485.06
2023-01-15T03:02:49.004Z,99487.50
2023-01-15T03:05:19.378Z,99519.03
2023-01-15T03:07:49.409Z,99505.84
2023-01-15T03:10:17.619Z,99520.09
2023-01-15T03:13:06.083Z,99520.91
2023-01-15T03:16:06.271Z,99510.56
2023-01-15T03:18:38.602Z,99515.72
2023-01-15T03:21:08.316Z,99502.97
2023-01-15T03:23:36.991Z,99500.25
2023-01-15T03:26:07.968Z,99430.34
2023-01-15T03:28:37.125Z,99469.31
2023-01-15T03:31:05.545Z,99467.59
2023-01-15T03:33:33.444Z,99485.84
2023-01-15T03:36:02.757Z,99484.78
2023-01-15T03:38:31.633Z,99473.09
2023-01-15T03:41:04.594Z,99472.25
2023-01-15T03:43:42.023Z,99487.50
2023-01-15T03:46:18.286Z,99480.41
2023-01-15T03:48:50.060Z,99470.38
2023-01-15T03:51:22.790Z,99492.34
2023-01-15T03:53:51.829Z,99469.56
2023-01-15T03:56:25.155Z,99451.72
2023-01-15T03:58:54.640Z,99471.44
2023-01-15T04:01:28.187Z,99414.59
2023-01-15T04:03:56.122Z,99485.84
2023-01-15T04:06:26.566Z,99491.28
2023-01-15T04:08:54.770Z,99485.03
2023-01-15T04:11:23.573Z,99487.72
2023-01-15T04:13:51.536Z,99481.47
2023-01-15T04:16:21.090Z,99472.25
2023-01-15T04:18:49.233Z,99483.94
2023-01-15T04:21:17.105Z,99486.66
2023-01-15T04:23:46.415Z,99483.94
2023-01-15T04:26:14.283Z,99489.16
2023-01-15T04:28:42.204Z,99435.69
2023-01-15T04:31:10.470Z,99492.69
2023-01-15T04:33:39.182Z,99490.78
2023-01-15T04:36:07.676Z,99505.44
2023-01-15T04:38:35.585Z,99493.25
2023-01-15T04:41:23.785Z,99495.13
2023-01-15T04:44:09.814Z,99485.38
2023-01-15T04:46:38.469Z,99483.47
2023-01-15T04:49:06.775Z,99478.84
2023-01-15T04:51:34.697Z,99485.38
2023-01-15T04:54:03.768Z,99483.19
2023-01-15T04:56:33.111Z,99494.06
2023-01-15T04:59:02.545Z,99497.59
2023-01-15T05:01:30.569Z,99494.88
2023-01-15T05:03:59.008Z,99498.44
2023-01-15T05:06:26.883Z,99495.72
2023-01-15T05:08:55.092Z,99480.25
2023-01-15T05:11:22.978Z,99478.34
2023-01-15T05:13:52.319Z,99481.06
2023-01-15T05:16:21.754Z,99485.69
2023-01-15T05:18:49.667Z,99494.66
2023-01-15T05:21:20.657Z,99498.19
2023-01-15T05:23:48.600Z,99477.53
2023-01-15T05:26:16.451Z,99493.00
2023-01-15T05:28:44.395Z,99498.19
2023-01-15T05:31:15.060Z,99502.81
2023-01-15T05:33:43.480Z,99503.63
2023-01-15T05:36:12.324Z,99495.47
2023-01-15T05:38:40.225Z,99501.75
2023-01-15T05:41:29.697Z,99496.31
2023-01-15T05:43:57.712Z,99502.56
2023-01-15T05:46:27.079Z,99500.63
2023-01-15T05:48:55.303Z,99497.13
2023-01-15T05:51:23.271Z,99498.19
2023-01-15T05:53:51.175Z,99482.56
2023-01-15T05:56:19.132Z,99489.78
2023-01-15T05:58:47.067Z,99503.63
2023-01-15T06:01:15.308Z,99496.03
2023-01-15T06:03:44.666Z,99500.63
2023-01-15T06:06:14.197Z,99489.38
2023-01-15T06:08:42.177Z,99515.03
2023-01-15T06:11:11.278Z,99506.06
2023-01-15T06:13:39.442Z,99510.44
2023-01-15T06:16:07.509Z,99447.53
2023-01-15T06:18:35.901Z,99523.19
2023-01-15T06:21:05.878Z,99524.03
2023-01-15T06:23:36.556Z,99531.34
2023-01-15T06:26:04.992Z,99534.06
2023-01-15T06:28:32.966Z,99537.59
2023-01-15T06:31:01.170Z,99537.59
2023-01-15T06:33:29.043Z,99540.31
2023-01-15T06:35:56.926Z,99534.06
2023-01-15T06:38:26.246Z,99543.03
2023-01-15T06:40:54.443Z,99544.91
2023-01-15T06:43:39.608Z,99534.88
2023-01-15T06:46:23.643Z,99551.19
2023-01-15T06:48:52.243Z,99545.75
2023-01-15T06:51:21.373Z,99545.75
2023-01-15T06:53:50.647Z,99549.28
2023-01-15T06:56:18.593Z,99518.03
2023-01-15T06:58:46.465Z,99543.84
2023-01-15T07:01:15.543Z,99544.91
2023-01-15T07:03:43.579Z,99553.91
2023-01-15T07:06:13.632Z,99552.84
2023-01-15T07:08:41.599Z,99530.34
2023-01-15T07:11:11.205Z,99547.41
2023-01-15T07:13:39.089Z,99563.69
2023-01-15T07:16:26.866Z,99547.41
2023-01-15T07:18:55.649Z,99549.28
2023-01-15T07:21:23.721Z,99549.81
2023-01-15T07:23:51.723Z,99556.63
2023-01-15T07:26:21.007Z,99560.16
2023-01-15T07:28:48.894Z,99544.75
2023-01-15T07:31:16.846Z,99556.63
2023-01-15T07:33:44.921Z,99552.00
2023-01-15T07:36:12.825Z,99557.28
2023-01-15T07:38:40.720Z,99568.31
2023-01-15T07:41:26.103Z,99576.44
2023-01-15T07:46:50.371Z,99580.00
2023-01-15T07:49:36.011Z,99589.56
2023-01-15T07:52:03.906Z,99592.28
2023-01-15T07:54:31.755Z,99589.56
2023-01-15T07:56:59.600Z,99593.91
2023-01-15T07:59:27.482Z,99593.91
2023-01-15T08:01:57.133Z,99605.59
2023-01-15T08:04:25.017Z,99603.38
2023-01-15T08:06:52.951Z,99605.59
2023-01-15T08:09:20.867Z,99616.22
2023-01-15T08:12:08.442Z,99604.19
2023-01-15T08:14:53.614Z,99615.38
2023-01-15T08:17:22.874Z,99623.78
2023-01-15T08:19:50.773Z,99625.69
2023-01-15T08:22:18.994Z,99631.13
2023-01-15T08:24:46.946Z,99637.34
2023-01-15T08:27:14.948Z,99637.34
2023-01-15T08:29:42.807Z,99644.44
2023-01-15T08:32:11.066Z,99657.78
2023-01-15T08:34:40.514Z,99641.72
2023-01-15T08:37:08.397Z,99659.09
2023-01-15T08:39:36.348Z,99653.66
2023-01-15T08:42:04.757Z,99669.94
2023-01-15T08:44:33.127Z,99667.25
2023-01-15T08:47:01.152Z,99677.88
2023-01-15T08:49:29.153Z,99666.19
2023-01-15T08:51:58.732Z,99667.25
2023-01-15T08:54:26.648Z,99668.91
2023-01-15T08:56:54.540Z,99673.50
2023-01-15T08:59:22.420Z,99677.88
2023-01-15T09:01:50.816Z,99677.03
2023-01-15T09:04:19.572Z,99686.03
2023-01-15T09:06:47.503Z,99675.38
2023-01-15T09:09:18.808Z,99682.47
2023-01-15T09:11:46.989Z,99670.78
2023-01-15T09:14:59.563Z,99678.09
2023-01-15T09:17:03.606Z,99683.31
2023-01-15T09:19:31.568Z,99676.22
2023-01-15T09:21:59.763Z,99673.25
2023-01-15T09:24:29.188Z,99677.41
2023-01-15T09:26:57.064Z,99664.06
2023-01-15T09:29:24.930Z,99666.78
2023-01-15T09:31:53.154Z,99657.78
2023-01-15T09:34:21.084Z,99666.78
2023-01-15T09:36:50.868Z,99675.75
2023-01-15T09:39:18.835Z,99679.28
2023-01-15T09:42:09.015Z,99669.81
2023-01-15T09:44:46.535Z,99672.53
2023-01-15T09:47:16.384Z,99676.06
2023-01-15T09:50:05.775Z,99673.13
2023-01-15T09:52:42.697Z,99673.34
2023-01-15T09:55:13.649Z,99639.06
2023-01-15T09:57:43.219Z,99663.06
2023-01-15T10:00:16.193Z,99660.91
2023-01-15T10:02:45.377Z,99661.97
2023-01-15T10:05:18.371Z,99660.09
2023-01-15T10:07:47.841Z,99652.75
2023-01-15T10:10:18.192Z,99620.88
2023-01-15T10:12:48.342Z,99653.59
2023-01-15T10:15:20.762Z,99653.03
2023-01-15T10:17:49.168Z,99672.13
2023-01-15T10:20:19.534Z,99662.25
2023-01-15T10:23:12.489Z,99643.06
2023-01-15T10:25:43.722Z,99668.81
2023-01-15T10:28:19.865Z,99688.91
2023-01-15T10:30:48.961Z,99691.63
2023-01-15T10:33:40.613Z,99699.78
2023-01-15T10:36:09.307Z,99698.94
2023-01-15T10:38:39.607Z,99705.44
2023-01-15T10:41:44.056Z,99691.88
2023-01-15T10:44:16.115Z,99699.22
2023-01-15T10:46:43.981Z,99693.78
2023-01-15T10:49:14.149Z,99702.72
2023-01-15T10:51:44.101Z,99709.25
2023-01-15T10:54:16.132Z,99695.91
2023-01-15T10:56:45.849Z,99692.13
2023-01-15T10:59:17.616Z,99688.81
2023-01-15T11:01:45.926Z,99705.34
2023-01-15T11:04:14.405Z,99698.88
2023-01-15T11:06:42.547Z,99697.22
2023-01-15T11:09:17.301Z,99708.91
2023-01-15T11:12:03.210Z,99693.69
2023-01-15T11:14:53.700Z,99702.91
2023-01-15T11:17:39.073Z,99706.91
2023-01-15T11:20:12.278Z,99712.13
2023-01-15T11:22:40.417Z,99717.56
2023-01-15T11:25:10.825Z,99711.28
2023-01-15T11:27:38.745Z,99715.91
2023-01-15T11:30:25.291Z,99705.03
2023-01-15T11:32:56.318Z,99711.28
2023-01-15T11:35:24.213Z,99708.81
2023-01-15T11:38:02.191Z,99686.25
2023-01-15T11:40:30.111Z,99696.06
2023-01-15T11:43:15.728Z,99691.69
2023-01-15T11:46:09.449Z,99700.66
2023-01-15T11:49:02.170Z,99687.59
2023-01-15T11:51:30.758Z,99697.38
2023-01-15T11:54:02.964Z,99690.69
2023-01-15T11:56:31.356Z,99700.34
2023-01-15T11:59:00.271Z,99704.94
2023-01-15T12:01:30.817Z,99695.72
2023-01-15T12:03:59.535Z,99686.75
2023-01-15T12:06:27.739Z,99686.75
2023-01-15T12:08:58.287Z,99676.13
2023-01-15T12:11:47.245Z,99665.84
2023-01-15T12:14:37.119Z,99677.53
2023-01-15T12:17:11.258Z,99688.41
2023-01-15T12:19:41.823Z,99684.63
2023-01-15T12:22:24.655Z,99689.56
2023-01-15T12:25:13.415Z,99694.41
2023-01-15T12:27:52.405Z,99694.75
2023-01-15T12:30:24.583Z,99696.41
2023-01-15T12:32:59.709Z,99698.31
2023-01-15T12:35:30.627Z,99697.22
2023-01-15T12:38:00.211Z,99679.84
2023-01-15T12:40:29.795Z,99675.25
2023-01-15T12:43:26.912Z,99671.47
2023-01-15T12:45:57.284Z,99675.84
2023-01-15T12:48:30.136Z,99657.06
2023-01-15T12:50:58.843Z,99612.75
2023-01-15T12:53:28.853Z,99669.81
2023-01-15T12:55:58.898Z,99659.59
2023-01-15T12:58:40.532Z,99677.97
2023-01-15T13:01:13.797Z,99675.84
2023-01-15T13:03:51.142Z,99644.28
2023-01-15T13:06:19.079Z,99675.47
2023-01-15T13:08:51.619Z,99680.91
2023-01-15T13:11:19.522Z,99670.03
2023-01-15T13:13:58.109Z,99664.38
2023-01-15T13:16:31.475Z,99673.50
2023-01-15T13:19:10.612Z,99678.78
2023-01-15T13:21:38.546Z,99652.75
2023-01-15T13:24:28.951Z,99676.31
2023-01-15T13:27:06.618Z,99657.94
2023-01-15T13:29:44.428Z,99670.88
2023-01-15T13:32:14.989Z,99677.13
2023-01-15T13:34:45.781Z,99673.84
2023-01-15T13:37:21.733Z,99673.84
2023-01-15T13:39:49.667Z,99686.63
2023-01-15T13:42:34.507Z,99683.91
2023-01-15T13:45:26.614Z,99693.69
2023-01-15T13:47:56.204Z,99681.19
2023-01-15T13:50:29.149Z,99687.09
2023-01-15T13:53:02.764Z,99693.94
2023-01-15T13:55:32.124Z,99694.41
2023-01-15T13:57:59.988Z,99706.69
2023-01-15T14:00:29.949Z,99715.66
2023-01-15T14:02:58.290Z,99705.34
2023-01-15T14:05:30.989Z,99721.66
2023-01-15T14:07:58.959Z,99716.22
2023-01-15T14:10:38.634Z,99710.78
2023-01-15T14:13:46.872Z,99729.00
2023-01-15T14:16:19.992Z,99715.44
2023-01-15T14:19:03.374Z,99724.38
2023-01-15T14:21:38.703Z,99726.28
2023-01-15T14:24:46.286Z,99718.38
2023-01-15T14:27:17.588Z,99731.72
2023-01-15T14:29:56.165Z,99724.66
2023-01-15T14:32:29.922Z,99735.50
2023-01-15T14:34:58.322Z,99738.47
2023-01-15T14:37:30.122Z,99740.94
2023-01-15T14:39:58.896Z,99742.84
2023-01-15T14:42:45.653Z,99747.44
2023-01-15T14:45:19.660Z,99755.59
2023-01-15T14:47:48.624Z,99758.53
2023-01-15T14:50:25.039Z,99753.09
2023-01-15T14:52:55.829Z,99758.53
2023-01-15T14:55:23.757Z,99764.56
2023-01-15T14:57:57.354Z,99755.25
2023-01-15T15:00:25.560Z,99759.38
2023-01-15T15:02:53.869Z,99765.63
2023-01-15T15:05:22.270Z,99774.00
2023-01-15T15:07:52.859Z,99738.69
2023-01-15T15:10:25.304Z,99780.03
2023-01-15T15:12:56.246Z,99778.16
2023-01-15T15:15:31.326Z,99748.63
2023-01-15T15:18:02.312Z,99766.47
2023-01-15T15:20:33.725Z,99765.41
2023-01-15T15:23:05.547Z,99761.63
2023-01-15T15:25:39.445Z,99765.13
2023-01-15T15:28:08.153Z,99762.69
2023-01-15T15:30:37.137Z,99757.25
2023-01-15T15:33:05.637Z,99764.34
2023-01-15T15:35:33.724Z,99768.13
2023-01-15T15:38:04.440Z,99758.22
2023-01-15T15:40:33.483Z,99761.63
2023-01-15T15:43:24.028Z,99761.63
2023-01-15T15:46:10.336Z,99765.41
2023-01-15T15:48:45.834Z,99764.56
2023-01-15T15:51:31.369Z,99759.97
2023-01-15T15:54:07.439Z,99764.56
2023-01-15T15:56:35.309Z,99761.63
2023-01-15T15:59:05.456Z,99777.91
2023-01-15T16:01:38.593Z,99775.19
2023-01-15T16:04:06.584Z,99768.94
2023-01-15T16:06:35.210Z,99783.91
2023-01-15T16:09:04.896Z,99785.81
2023-01-15T16:11:32.899Z,99775.19
2023-01-15T16:14:01.468Z,99773.78
2023-01-15T16:16:30.804Z,99784.41
2023-01-15T16:18:59.839Z,99785.25
2023-01-15T16:21:29.352Z,99777.09
2023-01-15T16:23:57.954Z,99768.94
2023-01-15T16:26:31.086Z,99782.53
2023-01-15T16:28:59.530Z,99780.63
2023-01-15T16:31:28.754Z,99777.09
2023-01-15T16:33:58.466Z,99759.78
2023-01-15T16:36:26.766Z,99767.03
2023-01-15T16:38:55.156Z,99774.38
2023-01-15T16:41:28.373Z,99771.66
2023-01-15T16:43:57.282Z,99771.66
2023-01-15T16:46:25.709Z,99763.50
2023-01-15T16:49:21.179Z,99763.50
2023-01-15T16:51:49.468Z,99767.03
2023-01-15T16:54:45.893Z,99770.81
2023-01-15T16:57:37.523Z,99776.25
2023-01-15T17:00:10.233Z,99771.06
2023-01-15T17:02:47.355Z,99770.22
2023-01-15T17:05:26.282Z,99770.22
2023-01-15T17:07:55.610Z,99776.50
2023-01-15T17:10:25.200Z,99781.94
2023-01-15T17:12:55.057Z,99781.09
2023-01-15T17:15:46.875Z,99780.28
2023-01-15T17:18:22.616Z,99781.94
2023-01-15T17:20:51.907Z,99798.47
2023-01-15T17:23:20.296Z,99798.47
2023-01-15T17:25:48.457Z,99804.72
2023-01-15T17:28:18.162Z,99803.91
2023-01-15T17:30:48.335Z,99796.84
2023-01-15T17:33:16.657Z,99803.91
2023-01-15T17:35:48.393Z,99806.59
2023-01-15T17:38:18.616Z,99797.63
2023-01-15T17:40:46.529Z,99798.72
2023-01-15T17:43:15.899Z,99797.91
2023-01-15T17:45:43.851Z,99792.47
2023-01-15T17:48:13.566Z,99787.84
2023-01-15T17:50:42.266Z,99780.78
2023-01-15T17:53:10.585Z,99785.13
2023-01-15T17:55:57.389Z,99779.72
2023-01-15T17:58:42.705Z,99778.88
2023-01-15T18:01:34.603Z,99778.88
2023-01-15T18:04:19.915Z,99782.66
2023-01-15T18:06:49.550Z,99778.53
2023-01-15T18:09:17.492Z,99787.25
2023-01-15T18:11:47.417Z,99787.25
2023-01-15T18:14:15.333Z,99780.78
2023-01-15T18:16:43.178Z,99778.28
2023-01-15T18:19:11.081Z,99788.09
2023-01-15T18:21:40.260Z,99778.28
2023-01-15T18:24:09.427Z,99776.41
2023-01-15T18:26:38.500Z,99774.75
2023-01-15T18:29:08.465Z,99770.38
2023-01-15T18:31:37.794Z,99767.41
2023-01-15T18:34:05.752Z,99767.41
2023-01-15T18:36:33.913Z,99770.97
2023-01-15T18:39:06.251Z,99768.25
2023-01-15T18:41:52.035Z,99765.53
2023-01-15T18:44:39.551Z,99764.72
2023-01-15T18:47:09.849Z,99766.03
2023-01-15T18:49:37.764Z,99764.09
2023-01-15T18:52:23.852Z,99761.38
2023-01-15T18:54:51.756Z,99759.50
2023-01-15T18:57:19.669Z,99755.97
2023-01-15T18:59:49.031Z,99750.78
2023-01-15T19:02:17.363Z,99750.53
2023-01-15T19:04:45.295Z,99758.44
2023-01-15T19:07:13.190Z,99748.41
2023-01-15T19:09:41.064Z,99747.34
2023-01-15T19:12:09.549Z,99741.09
2023-01-15T19:14:54.806Z,99750.88
2023-01-15T19:17:42.866Z,99748.41
2023-01-15T19:20:11.878Z,99718.25
2023-01-15T19:22:57.486Z,99739.44
2023-01-15T19:25:25.979Z,99735.88
2023-01-15T19:27:55.228Z,99733.16
2023-01-15T19:30:23.252Z,99731.28
2023-01-15T19:32:52.839Z,99724.19
2023-01-15T19:35:20.720Z,99718.75
2023-01-15T19:37:49.439Z,99717.69
2023-01-15T19:40:19.474Z,99720.41
2023-01-15T19:43:04.777Z,99718.53
2023-01-15T19:45:50.201Z,99712.25
2023-01-15T19:48:37.031Z,99703.28
2023-01-15T19:51:05.078Z,99697.03
2023-01-15T19:53:34.523Z,99698.69
2023-01-15T19:56:03.435Z,99695.97
2023-01-15T19:58:32.942Z,99690.31
2023-01-15T20:01:00.994Z,99678.38
2023-01-15T20:03:30.617Z,99680.81
2023-01-15T20:05:58.589Z,99677.63
2023-01-15T20:08:26.628Z,99683.06
2023-01-15T20:10:54.530Z,99670.31
2023-01-15T20:13:41.580Z,99664.59
2023-01-15T20:16:10.790Z,99669.81
2023-01-15T20:18:40.177Z,99660.00
2023-01-15T20:21:08.068Z,99660.00
2023-01-15T20:23:37.370Z,99648.31
2023-01-15T20:26:05.894Z,99644.22
2023-01-15T20:28:35.980Z,99639.94
2023-01-15T20:31:03.966Z,99639.69
2023-01-15T20:33:32.135Z,99639.44
2023-01-15T20:36:04.298Z,99635.06
2023-01-15T20:38:32.856Z,99630.47
2023-01-15T20:41:21.519Z,99621.16
2023-01-15T20:44:06.845Z,99616.88
2023-01-15T20:46:34.939Z,99611.44
2023-01-15T20:49:19.892Z,99607.91
2023-01-15T20:51:49.998Z,99614.41
2023-01-15T20:54:17.880Z,99607.09
2023-01-15T20:56:45.780Z,99600.81
2023-01-15T20:59:13.712Z,99599.16
2023-01-15T21:01:42.044Z,99589.97
2023-01-15T21:04:10.651Z,99591.59
2023-01-15T21:06:38.627Z,99580.75
2023-01-15T21:09:08.091Z,99586.19
2023-01-15T21:11:36.604Z,99582.63
2023-01-15T21:14:04.514Z,99569.06
2023-01-15T21:16:32.530Z,99565.50
2023-01-15T21:19:03.943Z,99569.88
2023-01-15T21:21:31.885Z,99571.78
2023-01-15T21:24:00.907Z,99570.13
2023-01-15T21:26:31.003Z,99561.38
2023-01-15T21:28:58.970Z,99553.22
2023-01-15T21:31:26.876Z,99547.56
2023-01-15T21:33:55.198Z,99536.13
2023-01-15T21:36:23.172Z,99537.75
2023-01-15T21:38:51.596Z,99534.22
2023-01-15T21:41:19.522Z,99542.38
2023-01-15T21:44:15.051Z,99531.25
2023-01-15T21:46:42.967Z,99528.53
2023-01-15T21:49:10.844Z,99519.84
2023-01-15T21:51:39.031Z,99512.75
2023-01-15T21:54:07.011Z,99505.44
2023-01-15T21:56:34.935Z,99508.97
2023-01-15T21:59:04.263Z,99502.72
2023-01-15T22:01:32.235Z,99497.28
2023-01-15T22:04:01.300Z,99489.94
2023-01-15T22:06:29.185Z,99491.84
2023-01-15T22:08:57.049Z,99489.13
2023-01-15T22:11:25.025Z,99489.13
2023-01-15T22:13:53.340Z,99480.16
2023-01-15T22:16:22.666Z,99475.53
2023-01-15T22:18:50.577Z,99467.41
2023-01-15T22:21:18.513Z,99473.66
2023-01-15T22:23:49.008Z,99458.41
2023-01-15T22:26:18.090Z,99461.97
2023-01-15T22:28:46.007Z,99451.09
2023-01-15T22:31:14.566Z,99453.81
2023-01-15T22:33:44.216Z,99461.13
2023-01-15T22:36:13.942Z,99452.16
2023-01-15T22:38:41.832Z,99441.28
2023-01-15T22:41:09.771Z,99440.22
2023-01-15T22:43:38.292Z,99435.88
2023-01-15T22:46:10.252Z,99427.72
2023-01-15T22:48:38.195Z,99428.78
2023-01-15T22:51:07.757Z,99426.88
2023-01-15T22:53:36.362Z,99416.03
2023-01-15T22:56:04.469Z,99412.47
2023-01-15T22:58:32.394Z,99416.03
2023-01-15T23:01:00.654Z,99413.31
2023-01-15T23:03:28.848Z,99408.94
2023-01-15T23:05:56.746Z,99399.97
2023-01-15T23:08:33.131Z,99397.00
2023-01-15T23:11:01.313Z,99382.84
2023-01-15T23:13:31.679Z,99374.97
2023-01-15T23:16:00.120Z,99366.00
2023-01-15T23:18:30.466Z,99371.16
2023-01-15T23:20:58.378Z,99373.88
2023-01-15T23:23:28.308Z,99364.66
2023-01-15T23:25:56.164Z,99363.84
2023-01-15T23:28:24.092Z,99366.56
2023-01-15T23:30:52.034Z,99358.41
2023-01-15T23:33:20.287Z,99360.06
2023-01-15T23:35:48.151Z,99356.25
2023-01-15T23:38:16.340Z,99353.53
2023-01-15T23:40:45.680Z,99350.84
2023-01-15T23:43:32.043Z,99344.56
2023-01-15T23:46:16.622Z,99337.50
2023-01-15T23:48:44.625Z,99334.78
2023-01-15T23:51:12.529Z,99332.88
2023-01-15T23:53:40.686Z,99332.88
2023-01-15T23:56:10.001Z,99342.94
2023-01-15T23:58:37.860Z,99338.31
